»·PEaware :: N221VB KSBP-KSMX

N221VB :: KSBP-KSMX

FLIGHT INFORMATION

Flight Status: Arrived
Operator: Privately registered:
United States
More flights under this callsign
Pilot: Aaron M. (29257)
Aircraft: CESSNA 172 SKYHAWK
(C172)
More flights by this aircraft type
Origin: KSBP San Luis Co Regl
United States
Destination: KSMX Santa Maria Pub/Capt Hancock
United States
More flights between these airports :: More routes between these airports
Route: MQO GLJ
File this flight plan on PilotEdge
Remarks:
Altitude:
(Current/Filed)
2,000ft
Speed:
(Current/Filed)
100kts
Departed: 09-Mar-22 03:39 PM
Arrived: 09-Mar-22 04:03 PM
Distance/Time
Traveled:
23nm/0:24
Distance/Time
To Go:
Arrived

Flight Plot

Page will automatically refresh every two minutes.


Map Options




Map Legend


Flown Route
Filed Route
Departure Airport
Arrival Airport
Navaid (VOR, NDB)
Fix

Horizontal Profiles

Position Reports

Time Latitude Longitude Heading Altitude Ground
Speed
09-Mar-22 15:06 35.237870 -120.646403 269 216ft 0kts
09-Mar-22 15:07 35.237870 -120.646403 269 216ft 0kts
09-Mar-22 15:08 35.237870 -120.646403 269 216ft 0kts
09-Mar-22 15:09 35.237870 -120.646403 269 216ft 0kts
09-Mar-22 15:10 35.237870 -120.646403 269 216ft 0kts
09-Mar-22 15:11 35.237870 -120.646403 269 216ft 0kts
09-Mar-22 15:12 35.237870 -120.646403 269 216ft 0kts
09-Mar-22 15:13 35.237870 -120.646403 269 216ft 0kts
09-Mar-22 15:14 35.237870 -120.646403 269 216ft 0kts
09-Mar-22 15:15 35.237870 -120.646403 269 216ft 0kts
09-Mar-22 15:16 35.237870 -120.646403 269 216ft 0kts
09-Mar-22 15:17 35.237870 -120.646403 269 216ft 0kts
09-Mar-22 15:18 35.237870 -120.646403 269 216ft 0kts
09-Mar-22 15:19 35.237870 -120.646403 269 216ft 0kts
09-Mar-22 15:20 35.237870 -120.646403 269 216ft 0kts
09-Mar-22 15:21 35.237870 -120.646403 269 216ft 0kts
09-Mar-22 15:22 35.237870 -120.646403 269 216ft 0kts
09-Mar-22 15:23 35.237870 -120.646403 269 216ft 0kts
09-Mar-22 15:24 35.237870 -120.646403 269 216ft 0kts
09-Mar-22 15:25 35.237870 -120.646403 269 216ft 0kts
09-Mar-22 15:26 35.237870 -120.646403 269 216ft 0kts
09-Mar-22 15:27 35.237870 -120.646403 269 216ft 0kts
09-Mar-22 15:28 35.237870 -120.646403 269 216ft 0kts
09-Mar-22 15:29 35.237870 -120.646403 269 216ft 0kts
09-Mar-22 15:30 35.237870 -120.646403 269 216ft 0kts
09-Mar-22 15:32 35.237870 -120.646403 269 216ft 0kts
09-Mar-22 15:33 35.237870 -120.646403 269 216ft 0kts
09-Mar-22 15:34 35.237870 -120.646403 269 216ft 0kts
09-Mar-22 15:35 35.237427 -120.645861 87 216ft 10kts
09-Mar-22 15:36 35.237375 -120.642817 120 216ft 0kts
09-Mar-22 15:37 35.236859 -120.643092 271 216ft 29kts
09-Mar-22 15:38 35.229092 -120.660592 176 795ft 109kts
09-Mar-22 15:39 35.200169 -120.653236 183 1249ft 102kts
09-Mar-22 15:40 35.171739 -120.645217 168 1579ft 109kts
09-Mar-22 15:41 35.143874 -120.633572 164 1985ft 104kts
09-Mar-22 15:42 35.112438 -120.622623 165 1969ft 124kts
09-Mar-22 15:43 35.078808 -120.623993 192 2010ft 116kts
09-Mar-22 15:44 35.043344 -120.630380 194 2003ft 129kts
09-Mar-22 15:45 35.009003 -120.640864 196 2020ft 122kts
09-Mar-22 15:46 34.975667 -120.645870 144 1966ft 124kts
09-Mar-22 15:47 34.953879 -120.613254 122 1932ft 125kts
09-Mar-22 15:48 34.929943 -120.582707 155 2154ft 130kts
09-Mar-22 15:49 34.898207 -120.567711 160 2562ft 117kts
09-Mar-22 15:50 34.868556 -120.554031 159 2955ft 113kts
09-Mar-22 15:51 34.844654 -120.526919 129 3115ft 133kts
09-Mar-22 15:52 34.819439 -120.494127 129 3113ft 131kts
09-Mar-22 15:53 34.795507 -120.463097 130 2846ft 109kts
09-Mar-22 15:54 34.784826 -120.432082 83 2285ft 99kts
09-Mar-22 15:55 34.797060 -120.405429 20 1608ft 84kts
09-Mar-22 15:56 34.819312 -120.395887 354 1701ft 83kts
09-Mar-22 15:57 34.842464 -120.397705 341 1828ft 80kts
09-Mar-22 15:58 34.861030 -120.408992 326 1211ft 69kts
09-Mar-22 15:59 34.873120 -120.422273 309 832ft 47kts
09-Mar-22 16:00 34.883318 -120.434572 313 563ft 52kts
09-Mar-22 16:01 34.893372 -120.446571 313 276ft 42kts
09-Mar-22 16:02 34.898008 -120.450286 4 265ft 7kts
09-Mar-22 16:03 34.897838 -120.448648 43 265ft 9kts
09-Mar-22 16:04 34.897104 -120.446408 95 265ft 0kts

Navigation Log

Ident Type
Flight plan parsing failed, navigation log unavailable